Garland's Hourly Summary for Saturday, March 18, 2017
Hour Temp
(f)
RH
(%)
Solar Rad.
(MJ/m2)
Rainfall
(in)
Wind
(mph)
3/18/2017 12:00 AM 70 62 0 0 3.55
3/18/2017 1:00 AM 69 64 0 0 7.86
3/18/2017 2:00 AM 67 67 0 0 9.58
3/18/2017 3:00 AM 65 74 0 0 7.18
3/18/2017 4:00 AM 64 79 0 0 4.86
3/18/2017 5:00 AM 63 83 0 0 5.11
3/18/2017 6:00 AM 62 88 0 0 4.5
3/18/2017 7:00 AM 62 92 0 0 4.75
3/18/2017 8:00 AM 62 92 0.01 0 5.17
3/18/2017 9:00 AM 62 90 0.14 0 5.29
3/18/2017 10:00 AM 63 84 0.35 0 4.45
3/18/2017 11:00 AM 66 73 0.9 0 4.25
3/18/2017 12:00 PM 70 62 2.18 0 3.62
3/18/2017 1:00 PM 73 59 2.28 0 3.24
3/18/2017 2:00 PM 73 59 2.02 0 5.29
3/18/2017 3:00 PM 75 56 2.69 0 5.39
3/18/2017 4:00 PM 76 53 1.92 0 6.13
3/18/2017 5:00 PM 78 52 1.61 0 7.06
3/18/2017 6:00 PM 78 50 0.76 0 7.68
3/18/2017 7:00 PM 77 49 0.36 0 7.65
3/18/2017 8:00 PM 75 55 0.05 0 6.93
3/18/2017 9:00 PM 72 60 0 0 4.39
3/18/2017 10:00 PM 71 63 0 0 3.77
3/18/2017 11:00 PM 69 67 0 0 3.01
Data Summary 69 68 15.27 0.00 5.45